Time;durP1;ratioP1;P1;durP2;ratioP2;P2;SDS_P1;SDS_P2;PMS_P1;PMS_P2;Temp;Humidity;BMP_temperature;BMP_pressure;BME280_temperature;BME280_humidity;BME280_pressure;Samples;Min_cycle;Max_cycle;Signal;HPM_P1;HPM_P2
2022/01/10 00:00:45;;;;;;;26.38;6.88;;;2.70;99.90;;;;;;5062791;28;20045;-76
2022/01/10 00:03:11;;;;;;;29.13;7.20;;;2.70;99.90;;;;;;5080519;28;20150;-76
2022/01/10 00:05:36;;;;;;;31.67;7.05;;;2.60;99.90;;;;;;5065170;28;20115;-76
2022/01/10 00:08:04;;;;;;;23.73;7.38;;;2.60;99.90;;;;;;5045025;28;20087;-76
2022/01/10 00:10:31;;;;;;;28.80;7.60;;;2.60;99.90;;;;;;5027393;28;20029;-76
2022/01/10 00:12:56;;;;;;;24.75;7.80;;;2.50;99.90;;;;;;5068709;28;20032;-76
2022/01/10 00:15:22;;;;;;;28.48;8.27;;;2.50;99.90;;;;;;5028612;28;20028;-76
2022/01/10 00:17:48;;;;;;;30.90;8.40;;;2.50;99.90;;;;;;5062088;28;20036;-76
2022/01/10 00:20:16;;;;;;;32.92;8.60;;;2.50;99.90;;;;;;5063787;28;20097;-76
2022/01/10 00:22:45;;;;;;;31.20;9.38;;;2.50;99.90;;;;;;5066853;28;20038;-76
2022/01/10 00:25:13;;;;;;;29.38;8.80;;;2.50;99.90;;;;;;5065975;28;20170;-76
2022/01/10 00:27:39;;;;;;;33.95;8.70;;;2.50;99.90;;;;;;5065529;28;20033;-76
2022/01/10 00:30:06;;;;;;;25.05;8.25;;;2.60;99.90;;;;;;5066901;28;20123;-75
2022/01/10 00:32:31;;;;;;;32.75;8.90;;;2.60;99.90;;;;;;5064810;28;20044;-75
2022/01/10 00:34:57;;;;;;;35.33;9.82;;;2.60;99.90;;;;;;5069376;28;20111;-75
2022/01/10 00:37:23;;;;;;;21.45;9.13;;;2.60;99.90;;;;;;5049996;28;20567;-75
2022/01/10 00:39:49;;;;;;;23.42;8.90;;;2.50;99.90;;;;;;5066113;28;20075;-75
2022/01/10 00:42:15;;;;;;;32.45;9.32;;;2.50;99.90;;;;;;5068052;28;20036;-75
2022/01/10 00:44:49;;;;;;;34.70;9.13;;;2.50;99.90;;;;;;5083162;28;20041;-76
2022/01/10 00:47:15;;;;;;;34.10;9.48;;;2.50;99.90;;;;;;5058668;28;20033;-76
2022/01/10 00:49:41;;;;;;;28.13;8.80;;;2.40;99.90;;;;;;5050353;28;20043;-76
2022/01/10 00:52:06;;;;;;;22.27;8.02;;;2.40;99.90;;;;;;5045206;28;20067;-76
2022/01/10 00:54:32;;;;;;;25.95;8.88;;;2.40;99.90;;;;;;5048322;28;20048;-76
2022/01/10 00:56:58;;;;;;;25.05;8.30;;;2.30;99.90;;;;;;5050043;28;20032;-76
2022/01/10 00:59:23;;;;;;;24.17;9.27;;;2.30;99.90;;;;;;5066801;28;20037;-75
2022/01/10 01:01:49;;;;;;;33.10;9.65;;;2.30;99.90;;;;;;5063464;28;20040;-75
2022/01/10 01:04:15;;;;;;;31.55;9.73;;;2.30;99.90;;;;;;5065826;28;20036;-75
2022/01/10 01:06:41;;;;;;;26.35;9.20;;;2.20;99.90;;;;;;5066512;28;20067;-75
2022/01/10 01:09:10;;;;;;;24.95;8.98;;;2.20;99.90;;;;;;5067061;28;20517;-75
2022/01/10 01:14:38;;;;;;;31.73;9.55;;;2.10;99.90;;;;;;5066971;28;20678;-75
2022/01/10 01:25:07;;;;;;;26.33;10.82;;;2.00;99.90;;;;;;5065821;28;20062;-76
2022/01/10 01:27:33;;;;;;;31.05;10.15;;;2.00;99.90;;;;;;5064507;28;20414;-76
2022/01/10 01:29:58;;;;;;;30.70;10.77;;;1.90;99.90;;;;;;5049179;28;20040;-77
2022/01/10 01:32:24;;;;;;;27.95;10.65;;;1.90;99.90;;;;;;5065519;28;20041;-76
2022/01/10 01:34:50;;;;;;;35.00;11.15;;;1.90;99.90;;;;;;5066675;28;20058;-76
2022/01/10 01:37:16;;;;;;;34.40;10.85;;;1.80;99.90;;;;;;5061393;28;20048;-76
2022/01/10 01:39:42;;;;;;;34.70;12.45;;;1.80;99.90;;;;;;5060563;28;20398;-76
2022/01/10 01:42:31;;;;;;;36.55;11.35;;;1.80;99.90;;;;;;5065567;28;20033;-75
2022/01/10 01:44:53;;;;;;;30.80;11.30;;;1.70;99.90;;;;;;5065123;28;20048;-75
2022/01/10 01:47:19;;;;;;;28.75;10.98;;;1.70;99.90;;;;;;5063129;28;20063;-75
2022/01/10 01:49:45;;;;;;;23.48;10.38;;;1.70;99.90;;;;;;5062611;28;20040;-75
2022/01/10 01:52:11;;;;;;;33.78;10.43;;;1.70;99.90;;;;;;5076996;28;20040;-74
2022/01/10 01:54:36;;;;;;;26.75;10.05;;;1.60;99.90;;;;;;5066106;28;20037;-74
2022/01/10 01:57:02;;;;;;;31.63;11.20;;;1.50;99.90;;;;;;5062536;28;20037;-74
2022/01/10 01:59:28;;;;;;;29.63;9.77;;;1.50;99.90;;;;;;5061678;28;20048;-74
2022/01/10 02:01:54;;;;;;;34.88;12.15;;;1.50;99.90;;;;;;5060840;28;20041;-74
2022/01/10 02:04:20;;;;;;;27.63;10.63;;;1.50;99.90;;;;;;5061898;28;20056;-74
2022/01/10 02:06:45;;;;;;;28.98;10.73;;;1.50;99.90;;;;;;5060750;28;20041;-74
2022/01/10 02:09:14;;;;;;;34.05;11.88;;;1.50;99.90;;;;;;5060693;28;20405;-74
2022/01/10 02:11:40;;;;;;;29.40;11.13;;;1.50;99.90;;;;;;5060928;28;20032;-74
2022/01/10 02:14:08;;;;;;;32.35;12.02;;;1.50;99.90;;;;;;5060893;28;20055;-75
2022/01/10 02:16:41;;;;;;;26.50;11.65;;;1.50;99.90;;;;;;5063781;28;20048;-74
2022/01/10 02:19:07;;;;;;;35.88;11.05;;;1.50;99.90;;;;;;5063257;28;20044;-74
2022/01/10 02:21:34;;;;;;;38.75;13.50;;;1.50;99.90;;;;;;5061349;28;20051;-74
2022/01/10 02:24:00;;;;;;;32.28;13.30;;;1.50;99.90;;;;;;5061500;28;20120;-74
2022/01/10 02:26:25;;;;;;;47.95;14.77;;;1.40;99.90;;;;;;5059745;28;20155;-74
2022/01/10 02:28:51;;;;;;;42.90;14.82;;;1.40;99.90;;;;;;5060282;28;20048;-74
2022/01/10 02:31:17;;;;;;;46.70;14.20;;;1.40;99.90;;;;;;5059113;28;20052;-74
2022/01/10 02:33:42;;;;;;;37.30;14.95;;;1.40;99.90;;;;;;5062904;28;20036;-74
2022/01/10 02:36:26;;;;;;;40.92;14.85;;;1.40;99.90;;;;;;5057022;28;20033;-74
2022/01/10 02:38:57;;;;;;;43.00;14.70;;;1.40;99.90;;;;;;5058623;28;20024;-73
2022/01/10 02:41:25;;;;;;;44.47;15.18;;;1.40;99.90;;;;;;5061767;28;20036;-73
2022/01/10 02:43:52;;;;;;;38.78;16.42;;;1.40;99.90;;;;;;5062850;28;20051;-74
2022/01/10 02:46:18;;;;;;;39.85;16.98;;;1.40;99.90;;;;;;5064586;28;20041;-74
2022/01/10 02:48:44;;;;;;;51.28;16.80;;;1.40;99.90;;;;;;5065952;28;20043;-73
2022/01/10 02:51:10;;;;;;;47.63;16.23;;;1.40;99.90;;;;;;5062412;28;20044;-74
2022/01/10 02:53:36;;;;;;;48.22;16.40;;;1.40;99.90;;;;;;5064908;28;20045;-74
2022/01/10 02:56:02;;;;;;;57.25;17.42;;;1.30;99.90;;;;;;5063306;28;20502;-74
2022/01/10 02:58:28;;;;;;;47.63;15.02;;;1.30;99.90;;;;;;5063350;28;20094;-74
2022/01/10 03:00:53;;;;;;;40.30;15.07;;;1.30;99.90;;;;;;5061974;28;20044;-75
2022/01/10 03:03:19;;;;;;;49.10;15.60;;;1.20;99.90;;;;;;5081707;28;20044;-74
2022/01/10 03:05:45;;;;;;;43.03;16.13;;;1.20;99.90;;;;;;5081509;28;20125;-74
2022/01/10 03:08:10;;;;;;;44.45;16.23;;;1.30;99.90;;;;;;5067732;28;20036;-74
2022/01/10 03:10:36;;;;;;;53.13;17.38;;;1.30;99.90;;;;;;5064056;28;20049;-74
2022/01/10 03:13:02;;;;;;;49.90;17.00;;;1.30;99.90;;;;;;5039598;28;20080;-74
2022/01/10 03:15:28;;;;;;;40.17;16.80;;;1.20;99.90;;;;;;5066209;28;20048;-74
2022/01/10 03:17:54;;;;;;;48.70;17.40;;;1.20;99.90;;;;;;5063130;28;20032;-74
2022/01/10 03:20:22;;;;;;;52.42;17.70;;;1.20;99.90;;;;;;5048985;28;20040;-74
2022/01/10 03:22:47;;;;;;;53.08;17.80;;;1.20;99.90;;;;;;5063138;28;20056;-74
2022/01/10 03:25:13;;;;;;;50.00;17.75;;;1.10;99.90;;;;;;5048576;28;20067;-74
2022/01/10 03:27:39;;;;;;;43.70;18.23;;;1.20;99.90;;;;;;5060317;28;20028;-74
2022/01/10 03:30:05;;;;;;;45.45;18.17;;;1.10;99.90;;;;;;5059285;28;20029;-74
2022/01/10 03:32:31;;;;;;;51.15;19.00;;;1.10;99.90;;;;;;5065065;28;20127;-75
2022/01/10 03:34:57;;;;;;;52.10;19.40;;;1.10;99.90;;;;;;5063644;28;20040;-75
2022/01/10 03:37:24;;;;;;;46.33;18.90;;;1.10;99.90;;;;;;5062608;28;20063;-74
2022/01/10 03:39:50;;;;;;;46.00;18.83;;;1.10;99.90;;;;;;5060636;28;20033;-74
2022/01/10 03:42:16;;;;;;;52.22;19.45;;;1.10;99.90;;;;;;5063850;28;20036;-75
2022/01/10 03:44:41;;;;;;;48.95;20.50;;;1.10;99.90;;;;;;5063172;28;20037;-75
2022/01/10 03:47:09;;;;;;;63.08;20.98;;;1.10;99.90;;;;;;5062057;28;20063;-75
2022/01/10 03:49:35;;;;;;;49.05;20.05;;;1.10;99.90;;;;;;5065235;28;20044;-75
2022/01/10 03:52:01;;;;;;;60.53;20.80;;;1.10;99.90;;;;;;5065278;28;20086;-75
2022/01/10 03:54:27;;;;;;;45.30;19.75;;;1.00;99.90;;;;;;5067028;28;20048;-75
2022/01/10 03:56:52;;;;;;;41.78;19.30;;;1.10;99.90;;;;;;5058587;28;20064;-74
2022/01/10 03:59:18;;;;;;;55.65;20.65;;;1.00;99.90;;;;;;5064157;28;20044;-75
2022/01/10 04:01:44;;;;;;;59.50;22.13;;;1.00;99.90;;;;;;5062442;28;20025;-75
2022/01/10 04:04:09;;;;;;;58.15;22.25;;;1.00;99.90;;;;;;5065098;28;20090;-75
2022/01/10 04:06:35;;;;;;;53.55;22.10;;;1.00;99.90;;;;;;5064364;28;20051;-74
2022/01/10 04:09:01;;;;;;;48.00;21.27;;;1.00;99.90;;;;;;5065360;28;20067;-74
2022/01/10 04:11:27;;;;;;;41.45;19.67;;;1.10;99.90;;;;;;5064513;28;20037;-74
2022/01/10 04:13:52;;;;;;;49.88;20.05;;;1.00;99.90;;;;;;5066315;28;20040;-75
2022/01/10 04:16:18;;;;;;;43.08;19.55;;;1.00;99.90;;;;;;5064054;28;20048;-75
2022/01/10 04:18:45;;;;;;;41.88;19.13;;;1.00;99.90;;;;;;5064383;28;20060;-75
2022/01/10 04:21:10;;;;;;;46.60;19.20;;;1.00;99.90;;;;;;5062656;28;20067;-76
2022/01/10 04:23:36;;;;;;;39.92;18.33;;;1.00;99.90;;;;;;5064760;28;20052;-75
2022/01/10 04:26:02;;;;;;;55.13;20.17;;;1.00;99.90;;;;;;5059230;28;20033;-75
2022/01/10 04:28:29;;;;;;;38.30;18.75;;;1.00;99.90;;;;;;5079816;28;20044;-75
2022/01/10 04:30:55;;;;;;;47.65;19.05;;;0.90;99.90;;;;;;5064398;28;20403;-75
2022/01/10 04:33:21;;;;;;;29.75;15.88;;;0.90;99.90;;;;;;5064416;28;20063;-75
2022/01/10 04:35:48;;;;;;;34.83;15.80;;;0.90;99.90;;;;;;5061054;28;20048;-76
2022/01/10 04:38:14;;;;;;;39.40;15.95;;;0.90;99.90;;;;;;5060604;28;20037;-76
2022/01/10 04:40:40;;;;;;;31.83;16.08;;;0.80;99.90;;;;;;5046605;28;20399;-76
2022/01/10 04:43:06;;;;;;;35.38;16.00;;;0.80;99.90;;;;;;5060857;28;20043;-76
2022/01/10 04:45:32;;;;;;;40.22;16.75;;;0.80;99.90;;;;;;5049115;28;20036;-75
2022/01/10 04:47:58;;;;;;;38.40;16.50;;;0.80;99.90;;;;;;5063319;28;20093;-75
2022/01/10 04:53:01;;;;;;;37.95;17.48;;;0.80;99.90;;;;;;5065200;28;20051;-75
2022/01/10 04:55:27;;;;;;;33.80;16.83;;;0.80;99.90;;;;;;5044387;28;20040;-75
2022/01/10 04:57:52;;;;;;;40.65;17.05;;;0.70;99.90;;;;;;5059611;28;20043;-75
2022/01/10 05:00:18;;;;;;;67.93;18.10;;;0.70;99.90;;;;;;5060697;28;20041;-74
2022/01/10 05:02:47;;;;;;;189.82;22.42;;;0.70;99.90;;;;;;5061891;28;20117;-75
2022/01/10 05:05:13;;;;;;;277.58;28.55;;;0.60;99.90;;;;;;5059234;28;20037;-74
2022/01/10 05:07:39;;;;;;;345.17;29.52;;;0.60;99.90;;;;;;5066565;28;20040;-74
2022/01/10 05:10:04;;;;;;;326.73;28.98;;;0.50;99.90;;;;;;5060347;28;20040;-74
2022/01/10 05:12:30;;;;;;;400.83;31.60;;;0.60;99.90;;;;;;5064157;28;20045;-74
2022/01/10 05:14:56;;;;;;;322.88;25.38;;;0.60;99.90;;;;;;5063683;28;20063;-74
2022/01/10 05:17:24;;;;;;;559.47;30.73;;;0.50;99.90;;;;;;5062506;28;20045;-73
2022/01/10 05:19:50;;;;;;;408.20;25.25;;;0.50;99.90;;;;;;5057838;28;20483;-73
2022/01/10 05:22:16;;;;;;;144.25;15.77;;;0.40;99.90;;;;;;5063898;28;20049;-73
2022/01/10 05:24:42;;;;;;;253.07;18.00;;;0.20;99.90;;;;;;5062266;28;20029;-73
2022/01/10 05:27:08;;;;;;;138.32;19.30;;;0.20;99.90;;;;;;5061812;28;20551;-73
2022/01/10 05:29:33;;;;;;;51.83;19.30;;;0.20;99.90;;;;;;5061108;28;20077;-73
2022/01/10 05:31:59;;;;;;;86.30;20.88;;;0.20;99.90;;;;;;5064791;28;20063;-72
2022/01/10 05:34:25;;;;;;;79.05;19.75;;;0.10;99.90;;;;;;5045586;28;20136;-74
2022/01/10 05:36:51;;;;;;;99.50;22.42;;;0.10;99.90;;;;;;5047992;28;20043;-73
2022/01/10 05:39:17;;;;;;;109.47;27.48;;;0.20;99.90;;;;;;5058912;28;20044;-73
2022/01/10 05:41:44;;;;;;;78.30;26.83;;;0.20;99.90;;;;;;5060826;28;20128;-73
2022/01/10 05:44:09;;;;;;;71.72;26.50;;;0.20;99.90;;;;;;5059329;28;20033;-73
2022/01/10 05:46:37;;;;;;;59.30;25.35;;;0.30;99.90;;;;;;5062039;28;20051;-73
2022/01/10 05:49:04;;;;;;;57.33;23.90;;;0.40;99.90;;;;;;5062047;28;20403;-73
2022/01/10 05:51:36;;;;;;;95.35;24.73;;;0.40;99.90;;;;;;5064340;28;20047;-73
2022/01/10 05:54:03;;;;;;;61.90;26.33;;;0.30;99.90;;;;;;5062390;28;20395;-73
2022/01/10 05:56:28;;;;;;;60.08;26.15;;;0.30;99.90;;;;;;5063515;28;20887;-72
2022/01/10 05:58:54;;;;;;;180.70;27.83;;;0.40;99.90;;;;;;5046003;28;20032;-73
2022/01/10 06:01:20;;;;;;;280.73;30.17;;;0.40;99.90;;;;;;5059933;28;20049;-73
2022/01/10 06:03:46;;;;;;;372.88;35.38;;;0.40;99.90;;;;;;5061503;28;20036;-73
2022/01/10 06:06:12;;;;;;;62.97;24.10;;;0.30;99.90;;;;;;5063245;28;20041;-73
2022/01/10 06:08:37;;;;;;;77.82;26.88;;;0.30;99.90;;;;;;5060927;28;20032;-73
2022/01/10 06:11:03;;;;;;;70.03;25.70;;;0.30;99.90;;;;;;5058504;28;20045;-73
2022/01/10 06:13:29;;;;;;;71.40;25.75;;;0.30;99.90;;;;;;5059820;28;20516;-73
2022/01/10 06:15:55;;;;;;;63.20;26.67;;;0.30;99.90;;;;;;5063175;28;20041;-72
2022/01/10 06:18:20;;;;;;;81.95;30.15;;;0.20;99.90;;;;;;5064596;28;20056;-72
2022/01/10 06:20:46;;;;;;;76.78;28.50;;;0.30;99.90;;;;;;5061219;28;20666;-72
2022/01/10 06:23:12;;;;;;;49.67;23.77;;;0.30;99.90;;;;;;5063807;28;22336;-72
2022/01/10 06:25:39;;;;;;;55.63;23.92;;;0.30;99.90;;;;;;5062163;28;20107;-72
2022/01/10 06:28:05;;;;;;;100.93;25.65;;;0.30;99.90;;;;;;5066791;28;20560;-71
2022/01/10 06:30:31;;;;;;;53.00;22.25;;;0.20;99.90;;;;;;5059485;28;20048;-72
2022/01/10 06:32:57;;;;;;;54.63;22.77;;;0.20;99.90;;;;;;5065088;28;20044;-72
2022/01/10 06:35:23;;;;;;;50.05;21.58;;;0.20;99.90;;;;;;5059563;28;20033;-72
2022/01/10 06:37:49;;;;;;;82.45;24.60;;;0.20;99.90;;;;;;5039177;28;20051;-73
2022/01/10 06:40:15;;;;;;;58.05;22.05;;;0.20;99.90;;;;;;5062841;28;20123;-72
2022/01/10 06:42:41;;;;;;;47.80;22.50;;;0.20;99.90;;;;;;5064632;28;20317;-72
2022/01/10 06:45:07;;;;;;;70.82;23.60;;;0.10;99.90;;;;;;5065575;28;20792;-73
2022/01/10 06:47:33;;;;;;;115.43;25.02;;;0.10;99.90;;;;;;5065903;28;20040;-73
2022/01/10 06:50:00;;;;;;;34.35;19.00;;;0.10;99.90;;;;;;5064145;28;20051;-73
2022/01/10 06:52:25;;;;;;;101.70;21.15;;;0.10;99.90;;;;;;5066034;28;20040;-73
2022/01/10 06:54:51;;;;;;;271.70;25.35;;;0.10;99.90;;;;;;5063125;28;20410;-72
2022/01/10 06:57:17;;;;;;;93.43;23.40;;;0.10;99.90;;;;;;5063097;28;20547;-72
2022/01/10 06:59:42;;;;;;;34.75;21.08;;;0.00;99.90;;;;;;5062826;28;20549;-72
2022/01/10 07:02:08;;;;;;;29.35;18.88;;;0.10;99.90;;;;;;5059446;28;20410;-72
2022/01/10 07:04:34;;;;;;;30.88;19.23;;;0.10;99.90;;;;;;5057995;28;21665;-73
2022/01/10 07:07:00;;;;;;;34.15;18.77;;;0.10;99.90;;;;;;5061215;28;20454;-72
2022/01/10 07:09:25;;;;;;;26.75;17.60;;;0.10;99.90;;;;;;5053593;28;20049;-71
2022/01/10 07:11:51;;;;;;;34.38;21.20;;;0.10;99.90;;;;;;5067343;28;20471;-72
2022/01/10 07:14:17;;;;;;;28.55;18.98;;;0.10;99.90;;;;;;5066678;28;20436;-73
2022/01/10 07:16:43;;;;;;;34.25;19.80;;;0.10;99.90;;;;;;5068135;28;20040;-72
2022/01/10 07:19:09;;;;;;;39.03;21.35;;;0.10;99.90;;;;;;5066971;28;20148;-72
2022/01/10 07:21:40;;;;;;;31.52;18.95;;;0.00;99.90;;;;;;5070998;28;20368;-72
2022/01/10 07:24:07;;;;;;;29.15;17.90;;;-0.10;99.90;;;;;;5070779;28;20072;-72
2022/01/10 07:26:33;;;;;;;26.17;18.50;;;-0.10;99.90;;;;;;5067956;28;20090;-72
2022/01/10 07:29:00;;;;;;;26.17;18.70;;;-0.20;99.90;;;;;;5064321;28;20115;-72
2022/01/10 07:31:26;;;;;;;26.15;18.50;;;-0.30;99.90;;;;;;5065065;28;20041;-71
2022/01/10 07:33:52;;;;;;;19.98;14.82;;;-0.30;99.90;;;;;;5067690;28;20444;-71
2022/01/10 07:36:18;;;;;;;17.00;15.18;;;-0.40;99.90;;;;;;5066162;28;20045;-72
2022/01/10 07:38:43;;;;;;;18.98;14.02;;;-0.40;99.90;;;;;;5066654;28;20637;-72
2022/01/10 07:41:09;;;;;;;23.33;16.30;;;-0.40;99.90;;;;;;5065981;28;20028;-71
2022/01/10 07:43:35;;;;;;;19.55;15.63;;;-0.30;99.90;;;;;;5069099;28;20037;-72
2022/01/10 07:46:02;;;;;;;21.05;16.10;;;-0.30;99.90;;;;;;5065736;28;20469;-72
2022/01/10 07:48:30;;;;;;;23.02;17.02;;;-0.20;99.90;;;;;;5067882;28;20047;-71
2022/01/10 07:50:56;;;;;;;21.45;14.95;;;-0.20;99.90;;;;;;5066353;28;20036;-71
2022/01/10 07:53:21;;;;;;;23.88;15.38;;;-0.30;99.90;;;;;;5067469;28;20033;-71
2022/01/10 07:55:48;;;;;;;22.88;15.63;;;-0.30;99.90;;;;;;5071169;28;20077;-71
2022/01/10 07:58:14;;;;;;;20.90;14.98;;;-0.20;99.90;;;;;;5068814;28;20159;-71
2022/01/10 08:00:40;;;;;;;20.33;14.32;;;-0.30;99.90;;;;;;5067792;28;20028;-72
2022/01/10 08:03:06;;;;;;;21.73;14.18;;;-0.30;99.90;;;;;;5062109;28;20044;-72
2022/01/10 08:05:32;;;;;;;21.77;15.85;;;-0.30;99.90;;;;;;5050549;28;20402;-71
2022/01/10 08:07:57;;;;;;;19.08;15.60;;;-0.30;99.90;;;;;;5044274;28;20071;-73
2022/01/10 08:10:23;;;;;;;23.13;16.35;;;-0.40;99.90;;;;;;5061613;28;20071;-72
2022/01/10 08:12:49;;;;;;;19.65;15.60;;;-0.30;99.90;;;;;;5062840;28;20056;-72
2022/01/10 08:15:14;;;;;;;19.00;14.95;;;-0.30;99.90;;;;;;5064394;28;20047;-72
2022/01/10 08:17:41;;;;;;;21.70;14.98;;;-0.30;99.90;;;;;;5066120;28;20044;-72
2022/01/10 08:20:09;;;;;;;29.75;18.48;;;-0.30;99.90;;;;;;5062105;28;20029;-72
2022/01/10 08:22:35;;;;;;;24.15;18.50;;;-0.40;99.90;;;;;;5062701;28;20040;-71
2022/01/10 08:25:01;;;;;;;28.67;19.15;;;-0.50;99.90;;;;;;5060400;28;20036;-71
2022/01/10 08:27:26;;;;;;;24.25;18.27;;;-0.50;99.90;;;;;;5064036;28;20043;-72
2022/01/10 08:29:52;;;;;;;25.15;18.48;;;-0.60;99.90;;;;;;5064229;28;20036;-72
2022/01/10 08:32:18;;;;;;;24.10;18.55;;;-0.60;99.90;;;;;;5064790;28;20095;-72
2022/01/10 08:34:44;;;;;;;24.95;18.00;;;-0.60;99.90;;;;;;5057723;28;20070;-71
2022/01/10 08:37:11;;;;;;;27.08;18.55;;;-0.50;99.90;;;;;;5054172;28;20137;-72
2022/01/10 08:39:37;;;;;;;29.20;19.40;;;-0.50;99.90;;;;;;5055099;28;20047;-72
2022/01/10 08:42:04;;;;;;;29.90;20.13;;;-0.50;99.90;;;;;;5061073;28;20047;-72
2022/01/10 08:44:29;;;;;;;29.38;19.85;;;-0.50;99.90;;;;;;5063805;28;20036;-72
2022/01/10 08:46:55;;;;;;;28.10;19.60;;;-0.50;99.90;;;;;;5066149;28;20071;-72
2022/01/10 08:49:21;;;;;;;28.63;19.50;;;-0.50;99.90;;;;;;5070932;28;20052;-72
2022/01/10 08:51:53;;;;;;;41.60;22.92;;;-0.40;99.90;;;;;;5063557;28;20114;-71
2022/01/10 08:54:21;;;;;;;51.30;27.13;;;-0.40;99.90;;;;;;5062663;28;20036;-71
2022/01/10 08:56:46;;;;;;;53.85;27.20;;;-0.40;99.90;;;;;;5061081;28;20044;-71
2022/01/10 08:59:12;;;;;;;51.15;28.00;;;-0.30;99.90;;;;;;5062469;28;20044;-72
2022/01/10 09:01:38;;;;;;;49.63;29.42;;;-0.20;99.90;;;;;;5064885;28;20522;-72
2022/01/10 09:04:03;;;;;;;44.17;28.42;;;-0.20;99.90;;;;;;5058897;28;20070;-72
2022/01/10 09:06:29;;;;;;;54.78;30.80;;;-0.10;99.90;;;;;;5060822;28;20127;-72
2022/01/10 09:08:55;;;;;;;53.80;30.50;;;-0.10;99.90;;;;;;5062488;28;20040;-72
2022/01/10 09:11:20;;;;;;;49.30;30.15;;;0.00;99.90;;;;;;5063824;28;20068;-72
2022/01/10 09:13:46;;;;;;;48.38;30.27;;;0.00;99.90;;;;;;5062942;28;20040;-72
2022/01/10 09:16:14;;;;;;;53.50;30.52;;;0.10;99.90;;;;;;5059822;28;20076;-71
2022/01/10 09:18:40;;;;;;;49.13;30.70;;;0.10;99.90;;;;;;5068770;28;20040;-72
2022/01/10 09:21:06;;;;;;;52.92;31.08;;;0.20;99.90;;;;;;5049636;28;20062;-73
2022/01/10 09:23:32;;;;;;;58.63;32.85;;;0.20;99.90;;;;;;5064986;28;20044;-72
2022/01/10 09:25:58;;;;;;;65.47;35.72;;;0.30;99.90;;;;;;5061461;28;20049;-72
2022/01/10 09:28:24;;;;;;;58.60;35.28;;;0.30;99.90;;;;;;5063224;28;20040;-71
2022/01/10 09:30:50;;;;;;;60.90;36.60;;;0.40;99.90;;;;;;5064113;28;20060;-72
2022/01/10 09:33:15;;;;;;;61.97;33.40;;;0.50;99.90;;;;;;5061165;28;20037;-71
2022/01/10 09:35:43;;;;;;;54.30;31.70;;;0.50;99.90;;;;;;5065509;28;20040;-71
2022/01/10 09:38:09;;;;;;;52.47;31.88;;;0.50;99.90;;;;;;5046770;28;20036;-71
2022/01/10 09:40:35;;;;;;;51.78;29.02;;;0.60;99.90;;;;;;5065090;28;20041;-71
2022/01/10 09:43:01;;;;;;;45.45;27.40;;;0.60;99.90;;;;;;5062044;28;20041;-72
2022/01/10 09:45:26;;;;;;;65.10;30.80;;;0.70;99.90;;;;;;5062567;28;20044;-72
2022/01/10 09:47:52;;;;;;;66.57;36.33;;;0.70;99.90;;;;;;5063979;28;20032;-73
2022/01/10 09:50:18;;;;;;;55.75;32.92;;;0.70;99.90;;;;;;5066383;28;20098;-73
2022/01/10 09:52:48;;;;;;;46.38;29.40;;;0.80;99.90;;;;;;5063883;28;20063;-72
2022/01/10 09:55:14;;;;;;;54.10;30.65;;;0.80;99.90;;;;;;5066850;28;20044;-72
2022/01/10 09:57:40;;;;;;;61.40;33.17;;;0.90;99.90;;;;;;5065738;28;20048;-71
2022/01/10 10:00:07;;;;;;;65.95;35.47;;;0.90;99.90;;;;;;5053730;28;20043;-73
2022/01/10 10:02:35;;;;;;;59.00;35.85;;;1.00;99.90;;;;;;5049673;28;20415;-73
2022/01/10 10:05:06;;;;;;;51.75;29.58;;;1.00;99.90;;;;;;5064774;28;20036;-73
2022/01/10 10:07:32;;;;;;;47.55;28.85;;;1.10;99.90;;;;;;5069072;28;20032;-73
2022/01/10 10:10:07;;;;;;;47.20;29.23;;;1.10;99.90;;;;;;5087789;28;20029;-74
2022/01/10 10:12:33;;;;;;;48.30;30.05;;;1.20;99.90;;;;;;5065309;28;20068;-74
2022/01/10 10:15:01;;;;;;;57.65;34.45;;;1.20;99.90;;;;;;5052877;28;20087;-74
2022/01/10 10:17:30;;;;;;;82.25;44.25;;;1.30;99.90;;;;;;5051240;28;20044;-74
2022/01/10 10:19:56;;;;;;;74.18;44.22;;;1.30;99.90;;;;;;5048009;28;20590;-74
2022/01/10 10:22:24;;;;;;;80.05;47.45;;;1.50;99.90;;;;;;5069683;28;20058;-74
2022/01/10 10:24:50;;;;;;;85.60;47.78;;;1.60;99.90;;;;;;5052600;28;20029;-74
2022/01/10 10:27:21;;;;;;;90.32;48.05;;;1.70;99.90;;;;;;5063835;28;20036;-74
2022/01/10 10:29:48;;;;;;;93.97;51.45;;;1.70;99.90;;;;;;5068624;28;20517;-74
2022/01/10 10:32:15;;;;;;;90.45;51.92;;;1.80;99.90;;;;;;5065094;28;20043;-73
2022/01/10 10:34:42;;;;;;;91.22;48.55;;;1.90;99.90;;;;;;5068498;28;20036;-74
2022/01/10 10:37:14;;;;;;;87.60;48.88;;;2.00;99.90;;;;;;5065901;28;20060;-73
2022/01/10 10:39:43;;;;;;;80.03;48.15;;;2.10;99.90;;;;;;5068121;28;20036;-73
2022/01/10 10:42:11;;;;;;;84.53;47.30;;;2.20;99.90;;;;;;5068230;28;20032;-73
2022/01/10 10:44:38;;;;;;;74.75;48.17;;;2.20;99.90;;;;;;5062475;28;20055;-73
2022/01/10 10:47:04;;;;;;;74.97;45.25;;;2.30;99.90;;;;;;5066515;28;20102;-74
2022/01/10 10:49:35;;;;;;;80.53;46.78;;;2.40;99.90;;;;;;5065516;28;20041;-73
2022/01/10 10:52:05;;;;;;;77.35;44.97;;;2.40;99.90;;;;;;5067032;28;20071;-74
2022/01/10 10:54:32;;;;;;;72.55;45.03;;;2.50;99.90;;;;;;5082549;28;20544;-74
2022/01/10 10:57:03;;;;;;;69.57;44.47;;;2.60;99.90;;;;;;5068898;28;20036;-74
2022/01/10 10:59:31;;;;;;;77.50;44.22;;;2.70;99.90;;;;;;5061759;28;20045;-74
2022/01/10 11:01:58;;;;;;;74.15;43.05;;;2.80;99.90;;;;;;5064780;28;20113;-74
2022/01/10 11:04:24;;;;;;;72.60;43.22;;;2.80;99.90;;;;;;5062981;28;20040;-75
2022/01/10 11:06:50;;;;;;;63.95;41.63;;;2.90;99.90;;;;;;5066309;28;20036;-75
2022/01/10 11:09:16;;;;;;;65.82;40.67;;;3.00;99.90;;;;;;5059986;28;20045;-75
2022/01/10 11:11:43;;;;;;;61.03;37.38;;;3.10;99.90;;;;;;5070756;28;20040;-75
2022/01/10 11:14:11;;;;;;;57.08;36.88;;;3.20;99.90;;;;;;5054464;28;20399;-75
2022/01/10 11:16:39;;;;;;;58.15;35.55;;;3.30;99.90;;;;;;5077839;28;20041;-75
2022/01/10 11:19:21;;;;;;;62.90;38.80;;;3.30;99.90;;;;;;5065687;28;20538;-74
2022/01/10 11:21:53;;;;;;;58.28;39.00;;;3.40;99.90;;;;;;5064903;28;20028;-74
2022/01/10 11:24:48;;;;;;;54.92;35.20;;;3.50;99.90;;;;;;5067480;28;20178;-74
2022/01/10 11:27:39;;;;;;;55.85;35.13;;;3.70;99.90;;;;;;5068353;28;20028;-75
2022/01/10 11:30:38;;;;;;;54.58;34.22;;;3.80;99.90;;;;;;5050584;28;20038;-74
2022/01/10 11:33:15;;;;;;;52.95;35.83;;;3.90;99.90;;;;;;5066120;28;20048;-75
2022/01/10 11:35:45;;;;;;;48.60;31.65;;;4.00;99.90;;;;;;5048212;28;20037;-75
2022/01/10 11:38:26;;;;;;;48.30;31.55;;;4.10;99.90;;;;;;5051625;28;20036;-74
2022/01/10 11:41:02;;;;;;;57.47;37.42;;;4.20;99.90;;;;;;5059843;28;20040;-75
2022/01/10 11:43:33;;;;;;;47.63;28.52;;;4.40;99.90;;;;;;5070016;28;20123;-75
2022/01/10 11:46:17;;;;;;;49.00;31.33;;;4.50;99.90;;;;;;5067558;28;20028;-74
2022/01/10 11:48:51;;;;;;;46.53;28.95;;;4.60;99.90;;;;;;5066139;28;20044;-75
2022/01/10 11:51:21;;;;;;;42.15;24.73;;;4.80;99.90;;;;;;5068252;28;20041;-75
2022/01/10 11:53:53;;;;;;;47.72;28.20;;;4.90;99.90;;;;;;5065791;28;20037;-74
2022/01/10 11:56:28;;;;;;;40.33;24.00;;;5.00;99.90;;;;;;5066202;28;20032;-74
2022/01/10 11:59:14;;;;;;;32.28;23.27;;;5.10;99.90;;;;;;5064450;28;20119;-74
2022/01/10 12:01:43;;;;;;;37.88;22.50;;;5.30;99.90;;;;;;5070039;28;20085;-75
2022/01/10 12:04:09;;;;;;;37.15;21.00;;;5.40;99.90;;;;;;5063399;28;20059;-75
2022/01/10 12:06:35;;;;;;;34.83;20.52;;;5.40;99.90;;;;;;5062871;28;20483;-75
2022/01/10 12:09:01;;;;;;;34.88;20.50;;;5.60;99.90;;;;;;5063079;28;20055;-75
2022/01/10 12:11:28;;;;;;;37.13;21.38;;;5.60;99.90;;;;;;5062974;28;20041;-75
2022/01/10 12:13:55;;;;;;;35.85;18.65;;;5.70;99.90;;;;;;5069939;28;20040;-74
2022/01/10 12:16:22;;;;;;;31.85;19.75;;;5.80;99.90;;;;;;5046899;28;20040;-75
2022/01/10 12:18:48;;;;;;;34.70;22.98;;;5.90;99.90;;;;;;5069046;28;20036;-75
2022/01/10 12:21:15;;;;;;;33.47;20.55;;;6.00;99.90;;;;;;5065298;28;20040;-75
2022/01/10 12:23:42;;;;;;;32.25;19.70;;;6.20;99.90;;;;;;5047595;28;20182;-76
2022/01/10 12:26:08;;;;;;;27.42;19.25;;;6.40;99.90;;;;;;5062437;28;20033;-75
2022/01/10 12:28:34;;;;;;;34.40;20.35;;;6.60;99.90;;;;;;5067959;28;20028;-75
2022/01/10 12:31:03;;;;;;;30.95;17.30;;;6.90;99.90;;;;;;5067766;28;20082;-74
2022/01/10 12:33:29;;;;;;;31.67;15.60;;;7.10;99.90;;;;;;5063276;28;20102;-75
2022/01/10 12:35:55;;;;;;;28.65;16.35;;;7.40;99.90;;;;;;5061214;28;20055;-76
2022/01/10 12:38:22;;;;;;;35.72;18.15;;;7.60;99.90;;;;;;5046185;28;20036;-74
2022/01/10 12:40:51;;;;;;;28.27;14.95;;;7.90;99.90;;;;;;5065698;28;20082;-74
2022/01/10 12:43:17;;;;;;;26.70;14.93;;;8.00;99.90;;;;;;5064990;28;20036;-74
2022/01/10 12:45:44;;;;;;;29.73;15.18;;;8.20;99.90;;;;;;5064900;28;20051;-74
2022/01/10 12:48:11;;;;;;;27.30;15.13;;;8.20;99.90;;;;;;5067831;28;20053;-75